Time;durP1;ratioP1;P1;durP2;ratioP2;P2;SDS_P1;SDS_P2;PMS_P1;PMS_P2;Temp;Humidity;BMP_temperature;BMP_pressure;BME280_temperature;BME280_humidity;BME280_pressure;Samples;Min_cycle;Max_cycle;Signal;HPM_P1;HPM_P2
2023/08/12 00:02:18;;;;;;;6.90;3.80;;;19.90;44.10;;;;;;5055325;28;20374;-69
2023/08/12 00:04:47;;;;;;;7.00;3.80;;;18.60;47.50;;;;;;5054573;28;20078;-69
2023/08/12 00:07:15;;;;;;;9.38;4.45;;;19.30;46.90;;;;;;5054352;28;20072;-69
2023/08/12 00:09:42;;;;;;;7.60;3.50;;;19.80;45.80;;;;;;5054627;28;20481;-69
2023/08/12 00:12:10;;;;;;;6.20;3.45;;;20.00;46.30;;;;;;5054494;28;20471;-68
2023/08/12 00:14:37;;;;;;;6.50;3.42;;;20.10;44.40;;;;;;5054293;28;20025;-69
2023/08/12 00:17:05;;;;;;;6.03;3.42;;;20.10;43.90;;;;;;5055083;28;20108;-68
2023/08/12 00:19:33;;;;;;;4.95;3.55;;;20.10;44.00;;;;;;5054255;28;20052;-68
2023/08/12 00:22:00;;;;;;;7.05;3.90;;;18.70;46.20;;;;;;5054327;28;20115;-67
2023/08/12 00:24:28;;;;;;;7.63;3.58;;;19.10;46.30;;;;;;5054222;28;20028;-67
2023/08/12 00:26:55;;;;;;;5.90;3.45;;;19.60;45.80;;;;;;5055211;28;20013;-67
2023/08/12 00:29:23;;;;;;;7.75;3.50;;;20.00;45.00;;;;;;5054176;28;20025;-67
2023/08/12 00:31:51;;;;;;;6.03;3.67;;;20.20;44.90;;;;;;5053862;28;20017;-67
2023/08/12 00:34:19;;;;;;;7.53;3.78;;;20.60;44.80;;;;;;5054876;28;20047;-68
2023/08/12 00:36:46;;;;;;;5.43;3.70;;;20.60;43.90;;;;;;5054877;28;20029;-67
2023/08/12 00:39:15;;;;;;;9.10;4.00;;;19.20;45.60;;;;;;5054912;28;20025;-68
2023/08/12 00:41:43;;;;;;;6.88;3.75;;;19.80;45.40;;;;;;5053885;28;20021;-68
2023/08/12 00:44:10;;;;;;;5.68;3.72;;;20.00;44.70;;;;;;5054023;28;20025;-68
2023/08/12 00:46:41;;;;;;;6.13;3.55;;;20.10;44.50;;;;;;5054939;28;20037;-68
2023/08/12 00:49:09;;;;;;;8.50;3.42;;;20.20;44.50;;;;;;5054902;28;20374;-68
2023/08/12 00:51:38;;;;;;;6.38;3.40;;;20.20;44.20;;;;;;5053180;28;20108;-68
2023/08/12 00:54:07;;;;;;;6.15;3.58;;;20.40;43.80;;;;;;5054596;28;20027;-69
2023/08/12 00:56:35;;;;;;;6.68;3.40;;;20.60;43.30;;;;;;5055410;28;20032;-68
2023/08/12 00:59:11;;;;;;;7.68;3.30;;;20.80;43.30;;;;;;5058956;28;20100;-69
2023/08/12 01:01:41;;;;;;;7.38;3.25;;;20.40;44.10;;;;;;5058880;28;20112;-68
2023/08/12 01:04:09;;;;;;;13.88;7.85;;;20.40;44.40;;;;;;5057681;28;20029;-69
2023/08/12 01:06:37;;;;;;;6.38;3.10;;;20.70;44.50;;;;;;5057238;28;20056;-67
2023/08/12 01:09:06;;;;;;;5.45;3.50;;;21.00;43.10;;;;;;5058618;28;20032;-68
2023/08/12 01:11:53;;;;;;;4.97;3.13;;;20.90;42.90;;;;;;5057719;28;20104;-69
2023/08/12 01:14:49;;;;;;;6.95;2.83;;;20.90;42.80;;;;;;5058639;28;20025;-69
2023/08/12 01:17:18;;;;;;;5.25;3.00;;;21.10;43.20;;;;;;5047146;28;20124;-68
2023/08/12 01:19:48;;;;;;;6.00;2.65;;;21.40;41.70;;;;;;5058633;28;20052;-68
2023/08/12 01:22:21;;;;;;;5.93;3.22;;;21.60;42.00;;;;;;5057880;28;20079;-61
2023/08/12 01:24:49;;;;;;;7.15;2.97;;;21.70;41.30;;;;;;5058083;28;20025;-61
2023/08/12 01:27:16;;;;;;;5.55;2.80;;;21.70;42.30;;;;;;5058245;28;20021;-62
2023/08/12 01:29:50;;;;;;;4.60;2.80;;;21.90;40.40;;;;;;5057969;28;20025;-61
2023/08/12 01:32:38;;;;;;;5.47;2.50;;;21.90;40.30;;;;;;5058327;28;20032;-61
2023/08/12 01:35:33;;;;;;;6.38;2.30;;;22.40;38.60;;;;;;5057292;28;20051;-61
2023/08/12 01:38:04;;;;;;;8.65;2.65;;;22.60;39.90;;;;;;5058255;28;20065;-61
2023/08/12 01:40:34;;;;;;;6.60;3.05;;;22.50;41.50;;;;;;5058253;28;20051;-62
2023/08/12 01:43:03;;;;;;;7.50;2.53;;;23.00;40.70;;;;;;5057731;28;20051;-61
2023/08/12 01:45:34;;;;;;;5.25;2.55;;;23.20;38.40;;;;;;5057122;28;20029;-61
2023/08/12 01:48:01;;;;;;;6.50;2.90;;;23.00;38.10;;;;;;5058244;28;20100;-61
2023/08/12 01:50:29;;;;;;;5.40;2.08;;;23.10;38.90;;;;;;5058224;28;20070;-61
2023/08/12 01:52:57;;;;;;;4.40;2.25;;;22.90;37.40;;;;;;5058065;28;20100;-62
2023/08/12 01:55:25;;;;;;;4.53;2.00;;;22.90;37.40;;;;;;5057648;28;20038;-61
2023/08/12 01:57:53;;;;;;;5.15;3.42;;;23.10;38.30;;;;;;5056778;28;20355;-62
2023/08/12 02:00:20;;;;;;;4.95;2.83;;;23.10;37.30;;;;;;5056699;28;20043;-62
2023/08/12 02:02:48;;;;;;;4.15;2.50;;;23.30;36.80;;;;;;5057660;28;20059;-61
2023/08/12 02:05:16;;;;;;;6.95;2.60;;;23.70;37.90;;;;;;5056416;28;20366;-61
2023/08/12 02:07:44;;;;;;;5.70;2.63;;;23.60;37.00;;;;;;5056277;28;20037;-61
2023/08/12 02:10:14;;;;;;;8.65;2.13;;;23.30;36.40;;;;;;5057501;28;20024;-61
2023/08/12 02:12:42;;;;;;;4.53;2.08;;;23.60;35.80;;;;;;5056329;28;20021;-62
2023/08/12 02:15:10;;;;;;;6.03;2.13;;;24.20;35.10;;;;;;5056322;28;20025;-61
2023/08/12 02:17:38;;;;;;;6.82;2.35;;;23.90;35.20;;;;;;5056208;28;20033;-61
2023/08/12 02:20:07;;;;;;;4.35;2.10;;;23.70;35.40;;;;;;5057153;28;20025;-61
2023/08/12 02:22:34;;;;;;;4.35;1.90;;;23.70;35.00;;;;;;5057567;28;20032;-61
2023/08/12 02:25:02;;;;;;;4.13;2.03;;;23.10;36.40;;;;;;5056223;28;20025;-62
2023/08/12 02:27:30;;;;;;;3.72;1.92;;;23.20;36.10;;;;;;5056229;28;20036;-62
2023/08/12 02:29:57;;;;;;;3.20;1.70;;;23.60;36.50;;;;;;5057217;28;20017;-62
2023/08/12 02:32:25;;;;;;;4.47;1.67;;;23.40;35.50;;;;;;5056921;28;20017;-61
2023/08/12 02:34:53;;;;;;;5.10;2.15;;;23.80;35.90;;;;;;5056305;28;20037;-61
2023/08/12 02:37:20;;;;;;;4.75;1.90;;;24.60;34.80;;;;;;5056548;28;20041;-61
2023/08/12 02:39:48;;;;;;;4.38;2.10;;;25.30;34.10;;;;;;5055991;28;20036;-62
2023/08/12 02:42:16;;;;;;;4.95;1.75;;;25.60;34.60;;;;;;5057231;28;20025;-61
2023/08/12 02:44:43;;;;;;;5.93;1.73;;;26.00;33.20;;;;;;5056957;28;20027;-61
2023/08/12 02:47:11;;;;;;;5.97;1.73;;;25.60;33.10;;;;;;5056708;28;20096;-61
2023/08/12 02:49:38;;;;;;;6.00;1.90;;;26.00;32.90;;;;;;5055923;28;20033;-62
2023/08/12 02:52:06;;;;;;;4.70;1.77;;;26.10;32.80;;;;;;5057002;28;20055;-62
2023/08/12 02:54:33;;;;;;;3.50;1.90;;;25.20;33.30;;;;;;5055587;28;20036;-62
2023/08/12 02:57:01;;;;;;;3.53;1.63;;;25.50;32.60;;;;;;5056693;28;20383;-62
2023/08/12 02:59:29;;;;;;;4.13;1.80;;;25.60;33.20;;;;;;5055903;28;20112;-61
2023/08/12 03:01:57;;;;;;;4.35;1.98;;;24.80;33.00;;;;;;5056786;28;20025;-61
2023/08/12 03:04:25;;;;;;;4.57;2.15;;;25.10;34.10;;;;;;5056636;28;20074;-63
2023/08/12 03:06:52;;;;;;;4.95;1.95;;;24.80;33.50;;;;;;5056212;28;20072;-63
2023/08/12 03:09:20;;;;;;;4.05;2.08;;;24.50;34.20;;;;;;5056587;28;20017;-62
2023/08/12 03:11:47;;;;;;;5.70;2.10;;;24.60;34.30;;;;;;5056517;28;20115;-61
2023/08/12 03:14:15;;;;;;;4.55;1.90;;;24.80;33.70;;;;;;5056455;28;20025;-61
2023/08/12 03:16:43;;;;;;;4.10;1.60;;;24.70;34.20;;;;;;5056353;28;20066;-61
2023/08/12 03:19:10;;;;;;;5.60;1.90;;;24.40;35.30;;;;;;5055636;28;20490;-61
2023/08/12 03:21:38;;;;;;;6.80;1.95;;;25.10;34.20;;;;;;5056339;28;20036;-61
2023/08/12 03:24:06;;;;;;;3.78;1.90;;;25.60;33.50;;;;;;5055170;28;20108;-61
2023/08/12 03:26:34;;;;;;;4.53;2.72;;;26.50;32.50;;;;;;5056422;28;20028;-61
2023/08/12 03:29:01;;;;;;;5.60;2.20;;;25.20;33.30;;;;;;5056237;28;20020;-61
2023/08/12 03:31:29;;;;;;;3.38;2.05;;;25.70;33.50;;;;;;5056168;28;20028;-61
2023/08/12 03:33:57;;;;;;;5.05;2.30;;;25.70;32.80;;;;;;5056112;28;20027;-62
2023/08/12 03:36:24;;;;;;;5.63;2.20;;;25.70;33.10;;;;;;5056157;28;20021;-62
2023/08/12 03:38:52;;;;;;;4.05;2.00;;;25.90;33.50;;;;;;5055799;28;20043;-62
2023/08/12 03:41:20;;;;;;;4.00;1.92;;;26.10;32.60;;;;;;5055867;28;20017;-62
2023/08/12 03:43:47;;;;;;;4.05;1.70;;;25.40;33.40;;;;;;5055989;28;20066;-62
2023/08/12 03:46:16;;;;;;;5.57;1.73;;;25.40;33.20;;;;;;5054721;28;20031;-62
2023/08/12 03:48:44;;;;;;;6.20;2.20;;;26.20;32.90;;;;;;5055785;28;20350;-62
2023/08/12 03:51:12;;;;;;;5.05;2.30;;;26.40;32.90;;;;;;5055793;28;20032;-62
2023/08/12 03:53:39;;;;;;;4.22;2.42;;;25.40;32.90;;;;;;5055771;28;20028;-62
2023/08/12 03:56:07;;;;;;;6.13;2.17;;;24.30;34.60;;;;;;5055759;28;20328;-62
2023/08/12 03:58:34;;;;;;;5.25;1.85;;;24.50;34.40;;;;;;5055394;28;20075;-67
2023/08/12 04:01:03;;;;;;;5.00;1.65;;;24.60;34.40;;;;;;5055625;28;20029;-67
2023/08/12 04:03:31;;;;;;;3.00;1.60;;;24.00;34.70;;;;;;5055580;28;20108;-67
2023/08/12 04:05:58;;;;;;;3.17;1.48;;;23.10;35.50;;;;;;5054253;28;20542;-67
2023/08/12 04:08:26;;;;;;;4.75;1.73;;;22.50;36.30;;;;;;5054543;28;20059;-67
2023/08/12 04:10:54;;;;;;;3.58;1.60;;;23.30;35.30;;;;;;5055497;28;20029;-67
2023/08/12 04:13:22;;;;;;;3.35;1.65;;;23.40;35.60;;;;;;5054435;28;20041;-68
2023/08/12 04:15:52;;;;;;;5.20;1.65;;;23.30;36.20;;;;;;5055317;28;20028;-67
2023/08/12 04:18:20;;;;;;;5.70;1.92;;;23.80;35.60;;;;;;5055319;28;20029;-67
2023/08/12 04:20:51;;;;;;;4.13;1.95;;;24.90;34.40;;;;;;5055456;28;20029;-67
2023/08/12 04:23:19;;;;;;;5.15;1.60;;;25.20;33.40;;;;;;5054829;28;20129;-67
2023/08/12 04:25:48;;;;;;;4.07;1.40;;;24.40;33.80;;;;;;5055254;28;20055;-67
2023/08/12 04:28:17;;;;;;;3.63;1.70;;;24.00;34.80;;;;;;5054150;28;20021;-67
2023/08/12 04:30:47;;;;;;;3.55;1.67;;;23.80;35.60;;;;;;5054009;28;20036;-67
2023/08/12 04:33:15;;;;;;;3.88;1.77;;;23.60;36.10;;;;;;5054338;28;20017;-67
2023/08/12 04:35:43;;;;;;;5.68;2.10;;;24.00;35.30;;;;;;5055158;28;20108;-67
2023/08/12 04:38:11;;;;;;;3.80;1.77;;;24.80;34.40;;;;;;5054579;28;20071;-67
2023/08/12 04:40:42;;;;;;;6.70;1.90;;;25.70;33.00;;;;;;5055150;28;20036;-67
2023/08/12 04:43:11;;;;;;;6.10;2.20;;;25.50;32.50;;;;;;5055119;28;20324;-68
2023/08/12 04:45:39;;;;;;;3.63;1.80;;;25.00;34.00;;;;;;5053901;28;20112;-68
2023/08/12 04:48:08;;;;;;;5.68;1.95;;;24.30;34.90;;;;;;5054900;28;20032;-52
2023/08/12 04:50:36;;;;;;;4.32;1.88;;;24.10;35.10;;;;;;5054883;28;20435;-62
2023/08/12 04:53:03;;;;;;;4.00;1.92;;;24.10;35.30;;;;;;5054363;28;20097;-64
2023/08/12 04:55:31;;;;;;;6.03;1.60;;;23.60;35.50;;;;;;5054526;28;20035;-64
2023/08/12 04:58:04;;;;;;;2.83;1.55;;;23.50;35.30;;;;;;5054859;28;20044;-68
2023/08/12 05:00:32;;;;;;;3.92;2.15;;;23.40;36.20;;;;;;5054056;28;20021;-66
2023/08/12 05:03:00;;;;;;;2.65;1.52;;;23.20;36.10;;;;;;5054027;28;20094;-75
2023/08/12 05:05:28;;;;;;;4.03;2.05;;;23.00;36.10;;;;;;5054805;28;20025;-69
2023/08/12 05:07:56;;;;;;;4.43;1.80;;;23.10;36.00;;;;;;5054764;28;20486;-69
2023/08/12 05:10:23;;;;;;;4.65;1.60;;;24.30;35.50;;;;;;5054983;28;20032;-68
2023/08/12 05:12:54;;;;;;;2.92;1.60;;;25.00;33.90;;;;;;5053710;28;20356;-71
2023/08/12 05:15:23;;;;;;;4.50;1.95;;;26.70;31.40;;;;;;5053967;28;20055;-67
2023/08/12 05:17:51;;;;;;;3.55;1.70;;;27.20;31.10;;;;;;5054262;28;20025;-70
2023/08/12 05:20:18;;;;;;;4.15;1.70;;;27.10;30.90;;;;;;5054854;28;20053;-68
2023/08/12 05:22:46;;;;;;;4.82;1.90;;;28.20;29.90;;;;;;5054252;28;20029;-68
2023/08/12 05:25:14;;;;;;;3.53;1.80;;;28.90;29.10;;;;;;5054278;28;20087;-69
2023/08/12 05:27:41;;;;;;;4.93;1.77;;;29.40;28.50;;;;;;5054222;28;20071;-69
2023/08/12 05:30:09;;;;;;;4.07;1.73;;;27.40;30.10;;;;;;5053676;28;20178;-70
2023/08/12 05:32:37;;;;;;;4.63;1.60;;;27.50;30.40;;;;;;5054695;28;20025;-69
2023/08/12 05:35:04;;;;;;;2.50;1.40;;;27.90;29.90;;;;;;5054675;28;20123;-70
2023/08/12 05:37:32;;;;;;;5.45;1.70;;;26.70;31.50;;;;;;5054332;28;20021;-72
2023/08/12 05:40:00;;;;;;;3.85;1.83;;;26.60;31.40;;;;;;5054545;28;20036;-71
2023/08/12 05:42:28;;;;;;;2.88;1.45;;;27.90;30.70;;;;;;5056025;28;20037;-71
2023/08/12 05:44:55;;;;;;;4.97;1.50;;;27.60;30.00;;;;;;5057330;28;20025;-71
2023/08/12 05:47:23;;;;;;;2.70;1.42;;;26.00;32.20;;;;;;5057232;28;20059;-71
2023/08/12 05:49:50;;;;;;;4.68;1.30;;;25.40;32.60;;;;;;5058232;28;20020;-71
2023/08/12 05:52:18;;;;;;;3.25;1.42;;;24.40;34.30;;;;;;5057557;28;20021;-71
2023/08/12 05:54:46;;;;;;;4.03;1.60;;;24.00;34.40;;;;;;5057038;28;20075;-70
2023/08/12 05:57:13;;;;;;;3.17;1.60;;;24.30;33.60;;;;;;5057755;28;20024;-68
2023/08/12 05:59:41;;;;;;;3.60;1.40;;;24.30;33.90;;;;;;5057947;28;20047;-68
2023/08/12 06:02:09;;;;;;;4.18;1.42;;;24.50;33.70;;;;;;5057986;28;20028;-68
2023/08/12 06:04:37;;;;;;;6.22;1.60;;;23.60;34.90;;;;;;5056893;28;20049;-68
2023/08/12 06:07:04;;;;;;;3.50;1.35;;;22.80;35.70;;;;;;5057606;28;20095;-68
2023/08/12 06:09:32;;;;;;;10.00;5.90;;;22.50;36.50;;;;;;5056776;28;20028;-70
2023/08/12 06:12:00;;;;;;;4.88;1.85;;;22.10;37.10;;;;;;5057744;28;20032;-69
2023/08/12 06:14:27;;;;;;;4.10;1.35;;;22.10;37.50;;;;;;5057667;28;20021;-69
2023/08/12 06:16:55;;;;;;;3.92;1.48;;;22.00;37.00;;;;;;5057609;28;20068;-69
2023/08/12 06:19:22;;;;;;;4.65;1.70;;;21.80;37.40;;;;;;5056725;28;20032;-69
2023/08/12 06:21:50;;;;;;;3.50;1.20;;;21.80;37.30;;;;;;5057573;28;20036;-69
2023/08/12 06:24:17;;;;;;;3.03;1.20;;;21.60;37.50;;;;;;5056574;28;20377;-69
2023/08/12 06:26:45;;;;;;;3.53;1.40;;;21.50;38.40;;;;;;5057567;28;20021;-69
2023/08/12 06:29:13;;;;;;;3.92;1.17;;;21.40;37.60;;;;;;5057377;28;20031;-70
2023/08/12 06:31:41;;;;;;;3.53;1.20;;;21.40;38.20;;;;;;5057415;28;20056;-68
2023/08/12 06:34:08;;;;;;;5.07;1.67;;;21.20;38.40;;;;;;5056321;28;20028;-68
2023/08/12 06:36:36;;;;;;;4.38;1.80;;;20.80;41.70;;;;;;5057291;28;20079;-70
2023/08/12 06:39:03;;;;;;;4.63;1.80;;;20.50;44.10;;;;;;5056379;28;20048;-69
2023/08/12 06:41:31;;;;;;;3.72;1.60;;;20.10;45.10;;;;;;5056330;28;20021;-69
2023/08/12 06:43:59;;;;;;;5.25;2.38;;;20.00;45.70;;;;;;5056131;28;20444;-69
2023/08/12 06:46:26;;;;;;;7.10;2.80;;;20.10;45.80;;;;;;5057252;28;20032;-69
2023/08/12 06:48:54;;;;;;;5.00;2.42;;;20.00;46.30;;;;;;5056077;28;20024;-70
2023/08/12 06:51:21;;;;;;;6.40;2.58;;;19.80;47.20;;;;;;5057150;28;20021;-69
2023/08/12 06:53:49;;;;;;;6.97;2.50;;;19.60;47.60;;;;;;5054687;28;20398;-69
2023/08/12 06:56:16;;;;;;;5.40;2.10;;;19.40;48.50;;;;;;5056962;28;20025;-69
2023/08/12 06:58:44;;;;;;;6.95;1.92;;;19.40;49.00;;;;;;5056875;28;20052;-69
2023/08/12 07:01:12;;;;;;;3.67;1.77;;;19.30;50.40;;;;;;5056938;28;20021;-69
2023/08/12 07:03:39;;;;;;;5.50;1.90;;;19.10;50.90;;;;;;5056985;28;20025;-69
2023/08/12 07:06:07;;;;;;;4.70;2.03;;;19.00;51.10;;;;;;5056625;28;20047;-68
2023/08/12 07:08:34;;;;;;;6.30;2.00;;;19.00;51.60;;;;;;5056713;28;20063;-68
2023/08/12 07:11:02;;;;;;;10.18;2.30;;;19.00;51.40;;;;;;5056747;28;20021;-68
2023/08/12 07:13:29;;;;;;;8.32;2.10;;;18.90;51.40;;;;;;5056480;28;20432;-68
2023/08/12 07:15:57;;;;;;;4.97;1.90;;;18.90;51.30;;;;;;5056529;28;20033;-68
2023/08/12 07:18:25;;;;;;;7.68;2.47;;;18.70;51.60;;;;;;5055484;28;20392;-69
2023/08/12 07:20:58;;;;;;;6.82;2.15;;;18.80;52.00;;;;;;5056884;28;20103;-69
2023/08/12 07:23:26;;;;;;;6.20;2.38;;;18.70;51.80;;;;;;5056443;28;20079;-68
2023/08/12 07:25:53;;;;;;;10.88;3.75;;;18.60;52.50;;;;;;5055320;28;20025;-69
2023/08/12 07:28:21;;;;;;;10.05;3.80;;;18.60;53.40;;;;;;5056189;28;20021;-68
2023/08/12 07:30:50;;;;;;;8.57;2.65;;;18.60;53.40;;;;;;5056419;28;20070;-68
2023/08/12 07:33:17;;;;;;;6.70;2.78;;;18.40;53.70;;;;;;5056728;28;20100;-69
2023/08/12 07:35:45;;;;;;;6.10;2.97;;;18.30;54.10;;;;;;5056226;28;20033;-69
2023/08/12 07:38:13;;;;;;;7.50;2.78;;;18.10;54.70;;;;;;5055183;28;20071;-69
2023/08/12 07:40:40;;;;;;;8.45;2.88;;;18.10;54.70;;;;;;5056144;28;20421;-68
2023/08/12 07:43:08;;;;;;;7.25;2.35;;;18.00;54.70;;;;;;5055993;28;20058;-69
2023/08/12 07:45:39;;;;;;;7.10;2.60;;;18.00;55.10;;;;;;5055734;28;20438;-69
2023/08/12 07:48:06;;;;;;;8.70;3.13;;;18.00;54.70;;;;;;5056325;28;20078;-69
2023/08/12 07:50:34;;;;;;;9.13;2.70;;;18.10;54.80;;;;;;5056052;28;20021;-70
2023/08/12 07:53:02;;;;;;;6.22;2.95;;;18.00;54.90;;;;;;5055068;28;20029;-70
2023/08/12 07:55:29;;;;;;;9.85;2.83;;;17.80;55.40;;;;;;5054821;28;20029;-71
2023/08/12 07:57:57;;;;;;;8.07;2.92;;;17.70;55.70;;;;;;5055733;28;20024;-70
2023/08/12 08:00:25;;;;;;;12.25;4.22;;;17.70;56.20;;;;;;5054900;28;20021;-69
2023/08/12 08:02:56;;;;;;;9.88;4.38;;;17.60;56.80;;;;;;5055815;28;20336;-68
2023/08/12 08:05:24;;;;;;;10.52;4.00;;;17.60;56.30;;;;;;5055177;28;20033;-69
2023/08/12 08:07:51;;;;;;;10.80;4.10;;;17.60;56.40;;;;;;5055771;28;20044;-69
2023/08/12 08:10:19;;;;;;;5.03;2.83;;;17.60;56.90;;;;;;5055667;28;20025;-68
2023/08/12 08:12:52;;;;;;;9.35;3.42;;;17.50;57.00;;;;;;5055589;28;20021;-69
2023/08/12 08:15:25;;;;;;;5.90;2.50;;;17.40;57.70;;;;;;5054646;28;20037;-64
2023/08/12 08:17:52;;;;;;;5.70;2.60;;;17.30;57.50;;;;;;5055419;28;20025;-66
2023/08/12 08:20:20;;;;;;;6.93;3.00;;;17.30;57.50;;;;;;5054369;28;20033;-65
2023/08/12 08:22:47;;;;;;;7.53;3.63;;;17.30;58.30;;;;;;5055390;28;20117;-65
2023/08/12 08:25:15;;;;;;;8.95;3.25;;;17.20;57.40;;;;;;5055345;28;20112;-65
2023/08/12 08:27:43;;;;;;;10.38;3.97;;;17.30;57.70;;;;;;5054252;28;20031;-65
2023/08/12 08:30:11;;;;;;;6.20;2.97;;;17.30;58.00;;;;;;5055321;28;20321;-65
2023/08/12 08:32:39;;;;;;;6.50;2.92;;;17.20;57.80;;;;;;5055216;28;20024;-65
2023/08/12 08:35:07;;;;;;;5.75;2.72;;;17.20;57.90;;;;;;5054119;28;20048;-65
2023/08/12 08:37:34;;;;;;;6.35;2.92;;;17.10;58.00;;;;;;5055113;28;20029;-65
2023/08/12 08:40:03;;;;;;;7.38;2.60;;;17.10;58.20;;;;;;5055030;28;20025;-65
2023/08/12 08:42:31;;;;;;;4.20;2.65;;;17.10;58.10;;;;;;5055183;28;20056;-65
2023/08/12 08:45:03;;;;;;;5.22;2.45;;;17.10;58.60;;;;;;5055127;28;20451;-65
2023/08/12 08:47:31;;;;;;;6.97;3.15;;;17.00;59.00;;;;;;5054105;28;20021;-66
2023/08/12 08:50:00;;;;;;;6.97;2.85;;;16.90;59.60;;;;;;5055081;28;20471;-66
2023/08/12 08:52:29;;;;;;;5.43;2.72;;;17.00;60.20;;;;;;5055014;28;20047;-66
2023/08/12 08:54:57;;;;;;;7.53;3.33;;;16.80;59.90;;;;;;5054961;28;20032;-64
2023/08/12 08:57:25;;;;;;;6.80;3.50;;;16.80;59.80;;;;;;5053884;28;20381;-65
2023/08/12 08:59:52;;;;;;;6.35;3.72;;;16.90;60.10;;;;;;5054865;28;20035;-65
2023/08/12 09:02:21;;;;;;;5.10;3.00;;;16.90;60.40;;;;;;5054952;28;20021;-65
2023/08/12 09:04:49;;;;;;;6.00;3.38;;;17.00;60.20;;;;;;5053894;28;20029;-65
2023/08/12 09:07:16;;;;;;;10.48;4.60;;;17.00;59.70;;;;;;5053648;28;20091;-66
2023/08/12 09:09:49;;;;;;;11.15;4.88;;;17.00;59.30;;;;;;5054878;28;20100;-66
2023/08/12 09:12:19;;;;;;;9.25;4.28;;;17.00;59.80;;;;;;5053922;28;20456;-65
2023/08/12 09:14:46;;;;;;;9.63;5.22;;;16.90;60.60;;;;;;5053757;28;20116;-65
2023/08/12 09:17:15;;;;;;;10.40;5.00;;;16.80;60.00;;;;;;5055850;28;20384;-65
2023/08/12 09:19:43;;;;;;;9.68;4.82;;;16.70;60.30;;;;;;5057895;28;20024;-66
2023/08/12 09:22:10;;;;;;;8.73;4.82;;;16.70;60.70;;;;;;5058831;28;20454;-66
2023/08/12 09:24:38;;;;;;;11.55;4.90;;;16.60;61.60;;;;;;5058729;28;20506;-66
2023/08/12 09:27:06;;;;;;;10.38;5.25;;;16.50;62.70;;;;;;5058526;28;20021;-66
2023/08/12 09:29:35;;;;;;;11.43;5.40;;;16.20;62.20;;;;;;5057629;28;20184;-66
2023/08/12 09:32:16;;;;;;;9.55;4.72;;;16.10;62.40;;;;;;5057636;28;20025;-66
2023/08/12 09:35:05;;;;;;;7.65;4.75;;;16.00;63.20;;;;;;5058625;28;20021;-65
2023/08/12 09:37:33;;;;;;;10.40;4.60;;;15.90;63.40;;;;;;5057613;28;20053;-65
2023/08/12 09:40:04;;;;;;;10.80;6.50;;;15.60;64.50;;;;;;5058541;28;20052;-66
2023/08/12 09:42:33;;;;;;;11.93;8.15;;;15.40;65.50;;;;;;5057412;28;20025;-65
2023/08/12 09:45:02;;;;;;;9.00;5.25;;;15.20;66.40;;;;;;5057290;28;20061;-66
2023/08/12 09:47:29;;;;;;;12.65;7.20;;;15.10;66.80;;;;;;5058191;28;20021;-65
2023/08/12 09:49:58;;;;;;;16.40;7.30;;;15.10;66.70;;;;;;5057318;28;20031;-65
2023/08/12 09:52:26;;;;;;;26.13;10.52;;;15.10;66.70;;;;;;5057295;28;20075;-65
2023/08/12 09:54:57;;;;;;;23.48;9.55;;;15.10;66.40;;;;;;5058186;28;20417;-65
2023/08/12 09:57:29;;;;;;;24.25;9.98;;;15.00;66.50;;;;;;5058142;28;20029;-65
2023/08/12 09:59:59;;;;;;;30.63;12.88;;;14.90;66.70;;;;;;5058184;28;20172;-65
2023/08/12 10:02:27;;;;;;;22.05;12.18;;;14.70;67.30;;;;;;5057063;28;20029;-65
2023/08/12 10:04:57;;;;;;;24.40;12.75;;;14.70;67.30;;;;;;5057964;28;20059;-66
2023/08/12 10:07:25;;;;;;;23.17;11.50;;;14.70;67.40;;;;;;5057762;28;20072;-66
2023/08/12 10:09:55;;;;;;;13.63;7.13;;;14.70;67.50;;;;;;5057946;28;20032;-66
2023/08/12 10:12:29;;;;;;;11.30;5.88;;;14.60;68.40;;;;;;5057792;28;20036;-64
2023/08/12 10:14:58;;;;;;;10.15;5.55;;;14.50;68.40;;;;;;5057718;28;20033;-65
2023/08/12 10:17:31;;;;;;;9.73;5.75;;;14.20;69.50;;;;;;5057456;28;20029;-64
2023/08/12 10:20:02;;;;;;;9.85;5.18;;;14.10;70.00;;;;;;5057788;28;20442;-65
2023/08/12 10:22:32;;;;;;;6.47;4.57;;;14.10;69.90;;;;;;5057725;28;20112;-65
2023/08/12 10:25:03;;;;;;;9.23;5.07;;;14.10;69.50;;;;;;5056660;28;20120;-65
2023/08/12 10:27:31;;;;;;;8.63;5.38;;;14.10;68.90;;;;;;5056713;28;20020;-62
2023/08/12 10:29:59;;;;;;;8.90;5.53;;;14.10;68.50;;;;;;5056842;28;20056;-65
2023/08/12 10:32:27;;;;;;;8.00;4.80;;;14.10;67.80;;;;;;5055780;28;20103;-62
2023/08/12 10:34:58;;;;;;;8.60;5.45;;;14.30;66.90;;;;;;5056526;28;20325;-62
2023/08/12 10:37:27;;;;;;;6.88;5.10;;;14.30;66.80;;;;;;5054181;28;20144;-62
2023/08/12 10:39:55;;;;;;;8.70;5.47;;;14.40;66.90;;;;;;5055533;28;20045;-62
2023/08/12 10:42:45;;;;;;;10.82;5.70;;;14.40;66.70;;;;;;5056088;28;20039;-63
2023/08/12 10:45:16;;;;;;;9.93;6.65;;;14.40;67.20;;;;;;5055779;28;20021;-61
2023/08/12 10:47:48;;;;;;;7.93;5.20;;;14.10;68.30;;;;;;5055606;28;20099;-62
2023/08/12 10:50:20;;;;;;;10.93;8.45;;;14.20;68.40;;;;;;5056071;28;20328;-63
2023/08/12 10:52:54;;;;;;;21.45;14.65;;;13.90;68.70;;;;;;5056034;28;20211;-62
2023/08/12 10:55:28;;;;;;;13.38;8.35;;;13.80;69.10;;;;;;5057103;28;20414;-63
2023/08/12 10:57:58;;;;;;;12.15;8.07;;;14.00;68.40;;;;;;5055742;28;20035;-62
2023/08/12 11:00:28;;;;;;;16.98;12.23;;;14.00;68.20;;;;;;5055934;28;20447;-62
2023/08/12 11:02:57;;;;;;;19.75;14.10;;;14.00;68.30;;;;;;5056050;28;20059;-62
2023/08/12 11:05:36;;;;;;;14.15;9.88;;;13.80;69.60;;;;;;5056495;28;20032;-61
2023/08/12 11:08:05;;;;;;;12.70;7.07;;;13.70;70.20;;;;;;5055787;28;20111;-63
2023/08/12 11:10:35;;;;;;;9.02;6.15;;;13.50;70.80;;;;;;5056121;28;20020;-64
2023/08/12 11:13:05;;;;;;;6.97;5.72;;;13.50;70.60;;;;;;5056591;28;20021;-62
2023/08/12 11:15:33;;;;;;;9.52;5.72;;;13.30;70.80;;;;;;5056215;28;20108;-62
2023/08/12 11:18:07;;;;;;;8.60;5.82;;;13.30;70.50;;;;;;5054639;28;20442;-62
2023/08/12 11:20:36;;;;;;;8.05;5.20;;;13.30;69.90;;;;;;5056334;28;20025;-62
2023/08/12 11:23:06;;;;;;;8.60;4.90;;;13.20;69.90;;;;;;5055379;28;20025;-62
2023/08/12 11:25:35;;;;;;;8.55;5.43;;;13.10;68.10;;;;;;5055337;28;20025;-63
2023/08/12 11:28:04;;;;;;;6.57;5.00;;;13.10;68.50;;;;;;5056181;28;20108;-61
2023/08/12 11:30:32;;;;;;;11.50;5.15;;;12.90;70.60;;;;;;5056230;28;20016;-62
2023/08/12 11:33:02;;;;;;;7.85;4.90;;;12.60;71.80;;;;;;5056286;28;20021;-62
2023/08/12 11:35:30;;;;;;;7.72;4.72;;;12.70;71.20;;;;;;5055271;28;20033;-62
2023/08/12 11:37:59;;;;;;;7.53;4.60;;;12.80;71.30;;;;;;5055082;28;20021;-62
2023/08/12 11:40:29;;;;;;;7.65;4.00;;;12.80;71.40;;;;;;5055616;28;20108;-62
2023/08/12 11:42:56;;;;;;;7.95;4.57;;;12.50;72.90;;;;;;5056088;28;20350;-62
2023/08/12 11:45:28;;;;;;;7.70;4.43;;;12.60;72.60;;;;;;5055811;28;20103;-63
2023/08/12 11:47:56;;;;;;;8.10;4.90;;;12.50;72.90;;;;;;5054991;28;20020;-63
2023/08/12 11:50:26;;;;;;;7.20;4.47;;;12.50;72.30;;;;;;5055904;28;20017;-63
2023/08/12 11:52:56;;;;;;;6.72;4.50;;;12.50;72.50;;;;;;5055872;28;20063;-63
2023/08/12 11:55:24;;;;;;;8.18;4.40;;;12.40;71.90;;;;;;5054881;28;20025;-63
2023/08/12 11:57:52;;;;;;;10.27;4.80;;;12.30;72.10;;;;;;5054732;28;20039;-62
2023/08/12 12:00:20;;;;;;;9.68;5.30;;;12.40;71.80;;;;;;5054773;28;20111;-62
2023/08/12 12:02:55;;;;;;;8.52;4.78;;;12.30;71.80;;;;;;5055660;28;20100;-61
2023/08/12 12:05:25;;;;;;;7.63;4.40;;;12.10;72.30;;;;;;5055416;28;20094;-63
2023/08/12 12:07:53;;;;;;;8.57;4.82;;;12.10;71.70;;;;;;5055567;28;20426;-61
2023/08/12 12:10:30;;;;;;;8.68;5.10;;;12.10;71.70;;;;;;5054635;28;20078;-62
2023/08/12 12:12:58;;;;;;;7.55;4.93;;;12.10;71.60;;;;;;5054355;28;20075;-61
2023/08/12 12:15:25;;;;;;;6.55;4.20;;;11.90;73.00;;;;;;5054328;28;20020;-64
2023/08/12 12:17:53;;;;;;;9.02;4.55;;;11.70;74.40;;;;;;5054490;28;20039;-62
2023/08/12 12:20:21;;;;;;;8.55;5.25;;;11.70;73.30;;;;;;5054532;28;20028;-61
2023/08/12 12:22:49;;;;;;;9.63;4.47;;;11.90;72.90;;;;;;5054422;28;20037;-62
2023/08/12 12:25:21;;;;;;;9.50;4.78;;;12.00;72.10;;;;;;5055314;28;20021;-63
2023/08/12 12:27:48;;;;;;;7.65;3.95;;;11.90;72.20;;;;;;5054469;28;20021;-62
2023/08/12 12:30:18;;;;;;;7.93;5.00;;;11.60;73.60;;;;;;5055437;28;20020;-62
2023/08/12 12:32:46;;;;;;;10.45;5.20;;;11.70;73.30;;;;;;5055326;28;20017;-61
2023/08/12 12:35:14;;;;;;;7.10;4.25;;;11.80;72.70;;;;;;5054303;28;20052;-62
2023/08/12 12:37:42;;;;;;;7.68;4.78;;;11.50;73.20;;;;;;5054167;28;20063;-61
2023/08/12 12:40:11;;;;;;;9.93;4.50;;;11.30;74.70;;;;;;5055226;28;20029;-61
2023/08/12 12:42:38;;;;;;;9.48;4.90;;;11.10;75.60;;;;;;5055196;28;20055;-62
2023/08/12 12:45:07;;;;;;;9.85;4.20;;;11.20;75.20;;;;;;5054070;28;20028;-62
2023/08/12 12:47:34;;;;;;;10.45;4.90;;;11.40;74.70;;;;;;5055068;28;20029;-61
2023/08/12 12:50:02;;;;;;;10.85;4.30;;;11.40;74.80;;;;;;5054182;28;20025;-62
2023/08/12 12:52:29;;;;;;;9.82;4.97;;;11.60;74.00;;;;;;5053114;28;20025;-62
2023/08/12 12:54:57;;;;;;;7.75;4.40;;;11.60;73.40;;;;;;5055063;28;20029;-61